Time;durP1;ratioP1;P1;durP2;ratioP2;P2;SDS_P1;SDS_P2;PMS_P1;PMS_P2;Temp;Humidity;BMP_temperature;BMP_pressure;BME280_temperature;BME280_humidity;BME280_pressure;Samples;Min_cycle;Max_cycle;Signal;HPM_P1;HPM_P2
2022/07/24 00:00:49;;;;;;;12.90;10.43;;;22.20;84.60;;;;;;5043851;28;20846;-49
2022/07/24 00:03:16;;;;;;;13.33;8.87;;;22.10;85.70;;;;;;5045393;28;20865;-49
2022/07/24 00:05:43;;;;;;;14.23;10.67;;;;;;;;;;5043106;28;20718;-48
2022/07/24 00:08:10;;;;;;;16.60;10.17;;;22.00;85.80;;;;;;5043040;28;20493;-49
2022/07/24 00:10:37;;;;;;;13.07;10.47;;;21.90;85.60;;;;;;5043454;28;20471;-48
2022/07/24 00:13:05;;;;;;;11.00;9.10;;;21.80;85.30;;;;;;5045603;28;20482;-48
2022/07/24 00:15:32;;;;;;;13.43;10.63;;;21.80;85.70;;;;;;5046089;28;20483;-49
2022/07/24 00:17:59;;;;;;;12.70;9.90;;;21.60;86.30;;;;;;5036402;28;20479;-49
2022/07/24 00:20:26;;;;;;;11.57;8.80;;;21.40;86.50;;;;;;5043954;28;20992;-48
2022/07/24 00:22:52;;;;;;;14.57;10.10;;;21.30;86.50;;;;;;5032236;28;20489;-48
2022/07/24 00:25:19;;;;;;;11.07;9.37;;;21.30;87.10;;;;;;5076932;28;20488;-48
2022/07/24 00:27:46;;;;;;;12.00;10.03;;;21.10;87.20;;;;;;5040432;28;20474;-48
2022/07/24 00:30:14;;;;;;;9.73;8.57;;;21.10;87.10;;;;;;5044105;28;20493;-49
2022/07/24 00:32:41;;;;;;;11.47;9.20;;;21.00;87.30;;;;;;5045422;28;20483;-48
2022/07/24 00:35:08;;;;;;;13.13;8.97;;;21.00;87.00;;;;;;5065677;28;20493;-48
2022/07/24 00:37:34;;;;;;;10.00;9.00;;;21.00;87.30;;;;;;5038513;28;20546;-48
2022/07/24 00:40:01;;;;;;;13.90;11.07;;;21.00;87.20;;;;;;5043693;28;20513;-48
2022/07/24 00:42:28;;;;;;;11.70;9.80;;;20.90;87.30;;;;;;5045483;28;21438;-48
2022/07/24 00:44:54;;;;;;;11.17;9.00;;;20.90;87.40;;;;;;5045283;28;21486;-48
2022/07/24 00:47:23;;;;;;;12.63;10.37;;;20.80;87.20;;;;;;5040309;28;20991;-49
2022/07/24 00:49:49;;;;;;;10.60;8.80;;;20.80;87.20;;;;;;5042510;28;21046;-48
2022/07/24 00:52:16;;;;;;;11.20;8.57;;;20.60;89.10;;;;;;5053792;28;20480;-49
2022/07/24 00:54:43;;;;;;;12.80;8.57;;;20.50;88.20;;;;;;5054425;28;20853;-48
2022/07/24 00:57:10;;;;;;;12.27;9.47;;;20.50;88.10;;;;;;5039924;28;20538;-48
2022/07/24 00:59:36;;;;;;;10.10;9.10;;;20.50;88.50;;;;;;5044237;28;20822;-51
2022/07/24 01:02:03;;;;;;;12.20;10.03;;;20.50;89.10;;;;;;5045190;28;20477;-48
2022/07/24 01:04:31;;;;;;;8.77;7.87;;;20.40;89.20;;;;;;5045364;28;20911;-48
2022/07/24 01:06:59;;;;;;;12.27;8.80;;;20.10;89.70;;;;;;5038008;28;20591;-48
2022/07/24 01:09:26;;;;;;;13.93;10.27;;;20.00;90.00;;;;;;5046031;28;20485;-48
2022/07/24 01:11:53;;;;;;;13.20;9.33;;;19.90;90.20;;;;;;5044759;28;20503;-48
2022/07/24 01:14:20;;;;;;;12.00;9.60;;;19.90;90.50;;;;;;5045361;28;20490;-48
2022/07/24 01:16:46;;;;;;;10.10;9.00;;;19.60;90.40;;;;;;5040041;28;21011;-48
2022/07/24 01:19:13;;;;;;;10.50;9.10;;;19.60;90.50;;;;;;5042184;28;20486;-48
2022/07/24 01:21:46;;;;;;;13.73;8.70;;;19.60;90.30;;;;;;5035806;28;21210;-48
2022/07/24 01:24:13;;;;;;;16.90;11.13;;;19.70;90.50;;;;;;5032109;28;20764;-48
2022/07/24 01:26:39;;;;;;;10.77;8.40;;;19.60;90.20;;;;;;5032150;28;20489;-48
2022/07/24 01:29:06;;;;;;;12.53;9.83;;;19.60;90.60;;;;;;5035844;28;20989;-48
2022/07/24 01:31:33;;;;;;;12.60;9.43;;;19.60;90.40;;;;;;5038369;28;20904;-48
2022/07/24 01:33:59;;;;;;;11.67;9.63;;;19.60;90.00;;;;;;5033395;28;20892;-48
2022/07/24 01:36:26;;;;;;;10.97;9.33;;;19.60;90.10;;;;;;5037296;28;21012;-49
2022/07/24 01:38:54;;;;;;;11.40;8.60;;;19.60;89.90;;;;;;5041454;28;20480;-48
2022/07/24 01:41:21;;;;;;;9.67;8.40;;;19.60;89.80;;;;;;5038587;28;20494;-48
2022/07/24 01:43:48;;;;;;;11.73;8.30;;;19.50;90.20;;;;;;5040009;28;20835;-48
2022/07/24 01:46:14;;;;;;;11.33;9.90;;;19.50;90.30;;;;;;5036543;28;20482;-48
2022/07/24 01:48:41;;;;;;;12.67;10.00;;;19.50;90.30;;;;;;5039356;28;20986;-48
2022/07/24 01:51:08;;;;;;;12.87;8.97;;;19.50;90.30;;;;;;5038497;28;20502;-48
2022/07/24 01:53:35;;;;;;;10.77;9.57;;;19.40;90.30;;;;;;5046548;28;20482;-48
2022/07/24 01:56:04;;;;;;;14.30;9.70;;;19.40;90.10;;;;;;5037499;28;20484;-48
2022/07/24 01:58:31;;;;;;;12.50;9.60;;;19.40;90.50;;;;;;5041551;28;20479;-48
2022/07/24 02:00:57;;;;;;;11.40;10.20;;;19.20;90.90;;;;;;5040740;28;20504;-49
2022/07/24 02:03:24;;;;;;;11.03;9.90;;;19.10;90.60;;;;;;5041951;28;20516;-48
2022/07/24 02:05:51;;;;;;;12.30;9.43;;;19.10;90.50;;;;;;5038311;28;20489;-48
2022/07/24 02:08:18;;;;;;;12.70;9.30;;;19.10;90.60;;;;;;5040410;28;20585;-48
2022/07/24 02:10:45;;;;;;;15.07;9.53;;;19.00;90.50;;;;;;5042070;28;20512;-48
2022/07/24 02:13:13;;;;;;;14.57;9.60;;;19.00;90.40;;;;;;5043447;28;21052;-48
2022/07/24 02:15:40;;;;;;;12.70;9.93;;;18.90;90.50;;;;;;5042324;28;20506;-47
2022/07/24 02:18:07;;;;;;;13.40;9.33;;;18.90;90.60;;;;;;5026401;28;20475;-47
2022/07/24 02:20:34;;;;;;;15.60;10.40;;;18.90;90.90;;;;;;5051842;28;20968;-48
2022/07/24 02:23:01;;;;;;;11.90;9.40;;;18.80;90.70;;;;;;5040778;28;20484;-48
2022/07/24 02:25:28;;;;;;;17.23;10.10;;;19.10;90.80;;;;;;5030811;28;20840;-48
2022/07/24 02:27:55;;;;;;;8.97;8.07;;;18.80;90.60;;;;;;5036542;28;20990;-48
2022/07/24 02:30:24;;;;;;;11.00;9.30;;;18.70;90.90;;;;;;5038879;28;20501;-48
2022/07/24 02:32:51;;;;;;;11.60;9.43;;;18.40;91.80;;;;;;5039224;28;20931;-48
2022/07/24 02:35:18;;;;;;;11.33;9.80;;;18.30;91.90;;;;;;5036949;28;20474;-48
2022/07/24 02:37:46;;;;;;;12.47;9.57;;;18.20;91.50;;;;;;5038164;28;20483;-48
2022/07/24 02:40:14;;;;;;;12.40;9.70;;;18.10;91.60;;;;;;5039605;28;20912;-48
2022/07/24 02:42:41;;;;;;;11.70;8.83;;;18.10;91.80;;;;;;5040717;28;20571;-48
2022/07/24 02:45:09;;;;;;;12.10;9.93;;;18.10;91.70;;;;;;5042780;28;21015;-48
2022/07/24 02:47:46;;;;;;;11.47;9.20;;;18.10;91.40;;;;;;5036082;28;20492;-48
2022/07/24 02:50:13;;;;;;;11.70;9.67;;;18.10;91.70;;;;;;5039203;28;20992;-48
2022/07/24 02:52:40;;;;;;;12.53;8.90;;;18.10;91.60;;;;;;5039692;28;21008;-48
2022/07/24 02:55:07;;;;;;;13.50;9.73;;;18.10;91.40;;;;;;5040187;28;20868;-48
2022/07/24 02:57:34;;;;;;;11.73;9.43;;;17.90;91.80;;;;;;5035216;28;20475;-47
2022/07/24 03:00:00;;;;;;;16.80;10.80;;;17.80;92.30;;;;;;5025680;28;20959;-48
2022/07/24 03:02:27;;;;;;;14.73;10.40;;;17.50;93.50;;;;;;5039867;28;20999;-47
2022/07/24 03:04:55;;;;;;;12.20;10.70;;;17.40;94.10;;;;;;5040051;28;20483;-47
2022/07/24 03:07:22;;;;;;;18.77;11.10;;;;;;;;;;5036207;28;20480;-48
2022/07/24 03:09:49;;;;;;;14.00;10.50;;;17.30;94.40;;;;;;5031412;28;20495;-47
2022/07/24 03:12:15;;;;;;;13.20;10.20;;;17.40;94.20;;;;;;5050252;28;20495;-48
2022/07/24 03:14:42;;;;;;;11.13;9.07;;;17.50;93.10;;;;;;5039871;28;20476;-48
2022/07/24 03:17:09;;;;;;;13.77;10.97;;;17.40;92.80;;;;;;5034187;28;21047;-48
2022/07/24 03:19:36;;;;;;;13.63;9.77;;;17.50;93.20;;;;;;5036304;28;20928;-47
2022/07/24 03:22:04;;;;;;;13.23;10.10;;;17.50;93.10;;;;;;5022785;28;20483;-47
2022/07/24 03:24:31;;;;;;;23.43;10.20;;;17.50;92.90;;;;;;5030870;28;20505;-47
2022/07/24 03:26:58;;;;;;;17.63;10.90;;;17.50;92.70;;;;;;5040076;28;20496;-47
2022/07/24 03:29:24;;;;;;;13.47;9.13;;;17.50;92.70;;;;;;5035286;28;20479;-48
2022/07/24 03:31:51;;;;;;;13.63;9.33;;;17.40;93.00;;;;;;5039118;28;20468;-47
2022/07/24 03:34:18;;;;;;;10.93;8.53;;;17.20;93.00;;;;;;5039860;28;20495;-48
2022/07/24 03:36:44;;;;;;;12.20;10.03;;;17.00;93.80;;;;;;5036806;28;20483;-47
2022/07/24 03:39:13;;;;;;;15.53;9.80;;;16.80;94.40;;;;;;5035299;28;21055;-47
2022/07/24 03:41:39;;;;;;;11.50;8.83;;;16.80;94.10;;;;;;5038615;28;20479;-48
2022/07/24 03:44:06;;;;;;;11.43;9.70;;;16.80;94.40;;;;;;5039091;28;20994;-47
2022/07/24 03:46:33;;;;;;;10.70;9.23;;;16.90;94.10;;;;;;5036455;28;20965;-48
2022/07/24 03:48:59;;;;;;;14.30;9.97;;;16.90;93.80;;;;;;5034613;28;20494;-47
2022/07/24 03:51:26;;;;;;;12.10;9.90;;;17.00;93.60;;;;;;5039553;28;20489;-47
2022/07/24 03:53:53;;;;;;;13.00;11.20;;;17.00;93.40;;;;;;5038297;28;20480;-47
2022/07/24 03:56:22;;;;;;;12.53;9.07;;;16.80;93.50;;;;;;5034703;28;20491;-48
2022/07/24 03:58:49;;;;;;;10.57;9.40;;;16.70;93.50;;;;;;5033358;28;20487;-47
2022/07/24 04:01:15;;;;;;;12.37;9.70;;;16.80;93.80;;;;;;5035464;28;20488;-47
2022/07/24 04:03:42;;;;;;;12.53;9.47;;;16.70;93.70;;;;;;5030660;28;20483;-47
2022/07/24 04:06:09;;;;;;;13.47;10.63;;;16.60;94.30;;;;;;5034108;28;20480;-48
2022/07/24 04:08:35;;;;;;;9.63;8.60;;;16.70;94.00;;;;;;5035593;28;20498;-47
2022/07/24 04:11:02;;;;;;;15.10;10.00;;;16.70;93.50;;;;;;5039619;28;20581;-47
2022/07/24 04:13:31;;;;;;;15.17;10.10;;;16.70;93.30;;;;;;5040603;28;20487;-47
2022/07/24 04:15:58;;;;;;;14.80;10.20;;;16.70;93.30;;;;;;5035585;28;21064;-47
2022/07/24 04:18:25;;;;;;;15.60;10.23;;;16.70;93.20;;;;;;5032236;28;20479;-47
2022/07/24 04:20:53;;;;;;;16.13;11.40;;;16.70;93.20;;;;;;5037649;28;21213;-47
2022/07/24 04:23:20;;;;;;;11.93;8.93;;;16.70;93.20;;;;;;5039595;28;20475;-48
2022/07/24 04:25:46;;;;;;;16.13;9.60;;;16.70;93.40;;;;;;5037597;28;20490;-47
2022/07/24 04:28:13;;;;;;;12.57;9.83;;;16.70;93.50;;;;;;5037484;28;20479;-47
2022/07/24 04:30:41;;;;;;;14.80;10.77;;;16.60;93.60;;;;;;5042970;28;21156;-47
2022/07/24 04:33:08;;;;;;;12.23;10.43;;;16.60;93.40;;;;;;5041213;28;20550;-46
2022/07/24 04:35:35;;;;;;;16.53;9.60;;;16.70;93.80;;;;;;5035002;28;20472;-47
2022/07/24 04:38:02;;;;;;;14.97;9.77;;;16.70;93.90;;;;;;5034805;28;20483;-47
2022/07/24 04:40:28;;;;;;;13.17;9.50;;;16.70;93.70;;;;;;5037977;28;20495;-47
2022/07/24 04:42:55;;;;;;;16.33;12.60;;;16.80;93.70;;;;;;5037904;28;20482;-47
2022/07/24 04:45:22;;;;;;;13.07;9.83;;;16.70;93.90;;;;;;5031883;28;20484;-48
2022/07/24 04:47:50;;;;;;;13.27;9.43;;;16.70;94.10;;;;;;5037292;28;20484;-47
2022/07/24 04:50:17;;;;;;;13.90;10.13;;;16.80;94.00;;;;;;5037588;28;20484;-53
2022/07/24 04:52:43;;;;;;;14.60;10.10;;;16.90;94.00;;;;;;5039333;28;21008;-47
2022/07/24 04:55:12;;;;;;;18.30;11.77;;;16.90;94.40;;;;;;5038268;28;20494;-47
2022/07/24 04:57:39;;;;;;;15.57;10.80;;;17.00;94.00;;;;;;5036548;28;20480;-47
2022/07/24 05:00:09;;;;;;;11.83;10.40;;;17.00;94.30;;;;;;5037524;28;20484;-48
2022/07/24 05:02:35;;;;;;;13.30;10.13;;;17.10;93.90;;;;;;5036861;28;20989;-48
2022/07/24 05:05:04;;;;;;;13.90;10.00;;;17.10;94.20;;;;;;5034565;28;20853;-45
2022/07/24 05:07:31;;;;;;;16.97;12.03;;;17.10;94.60;;;;;;5024187;28;20729;-45
2022/07/24 05:09:58;;;;;;;15.87;10.83;;;17.20;94.50;;;;;;5040941;28;20961;-46
2022/07/24 05:12:25;;;;;;;12.97;10.70;;;17.20;94.80;;;;;;5040312;28;22079;-46
2022/07/24 05:14:52;;;;;;;12.57;11.10;;;17.20;95.10;;;;;;5040328;28;20495;-46
2022/07/24 05:17:19;;;;;;;13.50;10.33;;;17.20;95.00;;;;;;5033925;28;22177;-46
2022/07/24 05:19:45;;;;;;;15.63;10.40;;;17.30;95.00;;;;;;5041124;28;20487;-47
2022/07/24 05:22:13;;;;;;;17.43;11.13;;;17.40;94.90;;;;;;5040590;28;20503;-46
2022/07/24 05:24:40;;;;;;;16.93;11.67;;;17.50;95.20;;;;;;5043179;28;20476;-47
2022/07/24 05:27:07;;;;;;;15.00;10.97;;;17.60;95.70;;;;;;5038454;28;20480;-46
2022/07/24 05:29:33;;;;;;;25.23;12.80;;;17.60;95.90;;;;;;5030334;28;20468;-46
2022/07/24 05:32:00;;;;;;;21.80;13.77;;;17.80;95.40;;;;;;5040168;28;20479;-46
2022/07/24 05:34:27;;;;;;;17.80;13.77;;;18.00;95.70;;;;;;5041971;28;20495;-47
2022/07/24 05:36:53;;;;;;;16.97;12.50;;;18.10;95.40;;;;;;5038463;28;20732;-46
2022/07/24 05:39:21;;;;;;;18.57;12.27;;;18.20;95.60;;;;;;5038904;28;20503;-46
2022/07/24 05:41:48;;;;;;;15.77;12.33;;;18.40;95.60;;;;;;5040107;28;20483;-46
2022/07/24 05:44:15;;;;;;;21.00;13.87;;;18.60;95.70;;;;;;5036308;28;20476;-47
2022/07/24 05:46:41;;;;;;;20.20;12.20;;;18.60;95.50;;;;;;5037292;28;20482;-51
2022/07/24 05:49:08;;;;;;;16.13;12.60;;;18.70;95.40;;;;;;5038257;28;20479;-47
2022/07/24 05:51:35;;;;;;;19.70;13.80;;;18.80;95.60;;;;;;5035931;28;20545;-47
2022/07/24 05:54:02;;;;;;;19.57;13.93;;;19.00;95.70;;;;;;5049667;28;20488;-47
2022/07/24 05:56:31;;;;;;;16.47;12.87;;;19.10;95.10;;;;;;5036929;28;20488;-47
2022/07/24 05:58:57;;;;;;;20.63;13.80;;;19.20;95.00;;;;;;5041253;28;20483;-47
2022/07/24 06:01:24;;;;;;;18.20;11.83;;;19.30;94.40;;;;;;5039671;28;20905;-47
2022/07/24 06:03:51;;;;;;;17.53;12.83;;;19.40;94.30;;;;;;5039180;28;20475;-53
2022/07/24 06:06:17;;;;;;;16.73;11.80;;;19.50;94.40;;;;;;5037518;28;21169;-51
2022/07/24 06:08:45;;;;;;;16.63;11.40;;;19.60;94.40;;;;;;5043162;28;20491;-47
2022/07/24 06:11:11;;;;;;;15.90;12.57;;;20.00;93.60;;;;;;5041761;28;20465;-47
2022/07/24 06:13:39;;;;;;;14.30;12.40;;;20.20;93.50;;;;;;5044141;28;20467;-47
2022/07/24 06:16:06;;;;;;;16.30;14.53;;;20.40;93.40;;;;;;5034066;28;20506;-48
2022/07/24 06:18:33;;;;;;;16.13;12.37;;;20.50;93.90;;;;;;5044938;28;20481;-47
2022/07/24 06:21:00;;;;;;;15.63;12.00;;;20.60;93.50;;;;;;5043062;28;20478;-48
2022/07/24 06:23:26;;;;;;;17.83;13.57;;;20.90;92.90;;;;;;5045510;28;20503;-48
2022/07/24 06:26:50;;;;;;;14.33;12.50;;;21.30;93.20;;;;;;5042595;28;20476;-48
2022/07/24 06:30:14;;;;;;;17.17;13.80;;;21.40;93.40;;;;;;5047259;28;20478;-48
2022/07/24 06:33:38;;;;;;;14.00;11.57;;;21.70;92.70;;;;;;5042435;28;20474;-48
2022/07/24 06:37:02;;;;;;;18.53;12.27;;;22.00;91.70;;;;;;5046396;28;20470;-48
2022/07/24 06:40:26;;;;;;;13.00;11.00;;;22.30;91.50;;;;;;5046293;28;20468;-48
2022/07/24 06:43:50;;;;;;;18.30;12.83;;;22.40;91.10;;;;;;5046993;28;20463;-48
2022/07/24 06:47:14;;;;;;;14.27;11.47;;;22.60;89.50;;;;;;5027794;28;20483;-48
2022/07/24 06:50:38;;;;;;;10.80;9.53;;;22.70;90.00;;;;;;5037478;28;20463;-48
2022/07/24 06:54:03;;;;;;;13.17;11.03;;;23.00;87.50;;;;;;5045066;28;20899;-48
2022/07/24 06:57:27;;;;;;;12.83;10.10;;;23.30;87.10;;;;;;5046757;28;20945;-48
2022/07/24 07:00:51;;;;;;;12.30;9.30;;;23.50;84.20;;;;;;5051948;28;20481;-48
2022/07/24 07:04:15;;;;;;;12.70;10.00;;;23.50;83.00;;;;;;5046840;28;20463;-48
2022/07/24 07:07:39;;;;;;;10.13;9.10;;;23.90;81.50;;;;;;5046935;28;20490;-48
2022/07/24 07:11:03;;;;;;;16.73;9.50;;;24.10;81.70;;;;;;5033843;28;20476;-48
2022/07/24 07:14:27;;;;;;;13.70;9.80;;;24.20;81.00;;;;;;5027623;28;21007;-48
2022/07/24 07:17:51;;;;;;;10.10;8.87;;;24.60;79.90;;;;;;5036956;28;20463;-48
2022/07/24 07:21:15;;;;;;;11.63;9.50;;;24.70;79.60;;;;;;5044922;28;20475;-48
2022/07/24 07:24:39;;;;;;;11.10;9.20;;;25.00;80.20;;;;;;5043047;28;21002;-48
2022/07/24 07:28:03;;;;;;;11.60;9.27;;;25.30;79.80;;;;;;5042719;28;20834;-48
2022/07/24 07:31:27;;;;;;;12.17;9.70;;;25.60;80.00;;;;;;5044537;28;20514;-48
2022/07/24 07:34:51;;;;;;;12.53;8.30;;;26.00;79.20;;;;;;5043514;28;20817;-49
2022/07/24 07:38:16;;;;;;;9.90;8.90;;;26.40;78.00;;;;;;5045188;28;20459;-49
2022/07/24 07:41:39;;;;;;;11.90;9.20;;;26.50;77.90;;;;;;5032035;28;20464;-49
2022/07/24 07:45:04;;;;;;;14.27;9.13;;;26.80;76.40;;;;;;5025995;28;20464;-49
2022/07/24 07:48:29;;;;;;;11.00;9.13;;;27.10;76.90;;;;;;5041651;28;20997;-49
2022/07/24 07:51:53;;;;;;;12.93;8.63;;;27.20;77.30;;;;;;5045999;28;20513;-50
2022/07/24 07:55:17;;;;;;;15.53;9.07;;;27.80;76.70;;;;;;5045812;28;20959;-49
2022/07/24 07:58:41;;;;;;;12.53;10.03;;;27.90;71.80;;;;;;5046548;28;20979;-49
2022/07/24 08:02:05;;;;;;;10.50;9.50;;;27.80;72.30;;;;;;5045576;28;20966;-49
2022/07/24 08:05:29;;;;;;;8.83;7.80;;;27.80;73.80;;;;;;5046670;28;20468;-49
2022/07/24 08:08:53;;;;;;;13.50;8.97;;;27.90;72.80;;;;;;5045535;28;20487;-49
2022/07/24 08:12:17;;;;;;;8.37;7.67;;;27.80;71.90;;;;;;5026208;28;21038;-49
2022/07/24 08:15:41;;;;;;;8.53;7.57;;;28.30;71.70;;;;;;5026158;28;20472;-50
2022/07/24 08:19:06;;;;;;;11.13;8.47;;;28.30;71.00;;;;;;5025522;28;20504;-49
2022/07/24 08:22:30;;;;;;;11.30;8.60;;;28.10;70.90;;;;;;5026361;28;20451;-50
2022/07/24 08:25:54;;;;;;;9.27;8.40;;;28.40;70.80;;;;;;5045135;28;20438;-50
2022/07/24 08:29:18;;;;;;;8.87;7.97;;;28.90;68.10;;;;;;5034825;28;20470;-50
2022/07/24 08:32:43;;;;;;;8.57;7.67;;;29.20;69.70;;;;;;5044596;28;20468;-51
2022/07/24 08:36:07;;;;;;;8.83;7.93;;;29.30;66.10;;;;;;5045143;28;20573;-51
2022/07/24 08:39:32;;;;;;;9.50;7.47;;;29.80;68.90;;;;;;5034177;28;21025;-51
2022/07/24 08:42:56;;;;;;;9.63;8.07;;;30.00;68.80;;;;;;5060925;28;20464;-51
2022/07/24 08:46:20;;;;;;;9.30;8.13;;;30.00;65.40;;;;;;5044523;28;20828;-50
2022/07/24 08:49:44;;;;;;;8.50;7.43;;;30.00;68.90;;;;;;5045805;28;20476;-52
2022/07/24 08:53:08;;;;;;;7.70;7.00;;;30.40;67.60;;;;;;5024792;28;20451;-51
2022/07/24 08:56:33;;;;;;;8.93;8.03;;;30.80;67.50;;;;;;5026415;28;20443;-51
2022/07/24 08:59:58;;;;;;;9.13;7.40;;;31.10;64.80;;;;;;5045194;28;20491;-52
2022/07/24 09:03:22;;;;;;;7.97;7.07;;;31.20;63.10;;;;;;5045103;28;20443;-51
2022/07/24 09:06:46;;;;;;;6.83;6.23;;;31.40;62.50;;;;;;5048247;28;20876;-50
2022/07/24 09:10:10;;;;;;;7.57;5.83;;;31.40;62.20;;;;;;5043439;28;20475;-51
2022/07/24 09:17:13;;;;;;;7.00;6.33;;;31.60;62.80;;;;;;5026227;28;20439;-51
2022/07/24 09:20:37;;;;;;;7.30;6.60;;;32.10;63.10;;;;;;5025474;28;20439;-52
2022/07/24 09:24:02;;;;;;;7.43;6.70;;;32.20;60.30;;;;;;5039798;28;20464;-52
2022/07/24 09:27:26;;;;;;;8.90;6.90;;;31.80;58.90;;;;;;5045368;28;20500;-51
2022/07/24 09:30:51;;;;;;;8.33;5.67;;;31.90;59.60;;;;;;5046720;28;20472;-51
2022/07/24 09:34:15;;;;;;;6.30;5.80;;;31.80;59.60;;;;;;5044972;28;20759;-51
2022/07/24 09:37:39;;;;;;;7.20;6.53;;;32.10;59.90;;;;;;5047219;28;20426;-52
2022/07/24 09:41:04;;;;;;;6.23;5.73;;;32.30;60.70;;;;;;5044421;28;20525;-52
2022/07/24 09:44:29;;;;;;;9.80;6.83;;;32.40;57.80;;;;;;5043088;28;20808;-52
2022/07/24 09:47:25;;;;;;;6.93;5.77;;;;;;;;;;5044163;28;20466;-52
2022/07/24 09:50:49;;;;;;;11.73;7.17;;;32.10;60.40;;;;;;5024131;28;20439;-53
2022/07/24 09:54:13;;;;;;;7.33;6.57;;;32.20;57.40;;;;;;5028464;28;20928;-52
2022/07/24 09:57:38;;;;;;;8.07;5.97;;;32.30;59.10;;;;;;5028500;28;20450;-51
2022/07/24 10:01:02;;;;;;;7.93;6.67;;;32.50;58.90;;;;;;5042554;28;20904;-53
2022/07/24 10:04:26;;;;;;;7.43;6.70;;;32.70;60.60;;;;;;5028471;28;20471;-52
2022/07/24 10:07:50;;;;;;;6.93;6.20;;;32.90;59.40;;;;;;5040220;28;21021;-52
2022/07/24 10:11:14;;;;;;;8.10;6.97;;;33.00;56.70;;;;;;5046977;28;20446;-53
2022/07/24 10:14:38;;;;;;;11.03;6.40;;;32.40;56.90;;;;;;5048758;28;20438;-51
2022/07/24 10:18:02;;;;;;;7.53;6.60;;;32.10;58.00;;;;;;5047768;28;20954;-51
2022/07/24 10:21:26;;;;;;;7.97;7.20;;;31.70;57.80;;;;;;5028245;28;20920;-50
2022/07/24 10:24:50;;;;;;;7.97;7.17;;;31.60;59.40;;;;;;5027466;28;20439;-52
2022/07/24 10:28:14;;;;;;;8.30;7.00;;;31.90;61.00;;;;;;5047181;28;20466;-53
2022/07/24 10:31:38;;;;;;;16.70;8.13;;;31.90;60.10;;;;;;5047183;28;20454;-52
2022/07/24 10:35:02;;;;;;;9.03;7.80;;;32.10;60.20;;;;;;5051089;28;21009;-53
2022/07/24 10:38:26;;;;;;;6.80;6.20;;;32.50;57.90;;;;;;5067932;28;20942;-52
2022/07/24 10:41:51;;;;;;;6.70;6.10;;;33.20;59.70;;;;;;5026942;28;20436;-53
2022/07/24 10:45:15;;;;;;;5.87;5.37;;;33.40;56.00;;;;;;5066952;28;20429;-52
2022/07/24 10:48:41;;;;;;;5.97;5.37;;;33.60;56.70;;;;;;5064311;28;20980;-51
2022/07/24 10:52:05;;;;;;;5.80;5.30;;;33.60;54.10;;;;;;5027257;28;20443;-51
2022/07/24 10:55:29;;;;;;;10.40;6.70;;;33.70;56.60;;;;;;5033643;28;20443;-52
2022/07/24 10:58:53;;;;;;;6.00;5.50;;;33.60;55.00;;;;;;5051045;28;20455;-51
2022/07/24 11:02:17;;;;;;;7.57;6.67;;;33.70;54.20;;;;;;5049278;28;20456;-52
2022/07/24 11:05:41;;;;;;;6.17;5.40;;;33.40;54.20;;;;;;5047598;28;20459;-51
2022/07/24 11:09:05;;;;;;;6.60;6.00;;;33.40;53.50;;;;;;5027517;28;21122;-51
2022/07/24 11:12:29;;;;;;;11.30;6.30;;;33.30;54.40;;;;;;5027727;28;20468;-51
2022/07/24 11:15:56;;;;;;;6.20;5.60;;;33.20;52.70;;;;;;5025941;28;20520;-50
2022/07/24 11:19:20;;;;;;;5.83;5.33;;;32.90;52.90;;;;;;5026909;28;20835;-51
2022/07/24 11:22:44;;;;;;;6.07;5.47;;;33.10;54.20;;;;;;5026338;28;20507;-51
2022/07/24 11:26:08;;;;;;;11.33;5.23;;;33.00;53.00;;;;;;5040800;28;20431;-50
2022/07/24 11:29:34;;;;;;;6.30;5.70;;;33.20;54.00;;;;;;5036521;28;20489;-54
2022/07/24 11:32:59;;;;;;;6.37;5.87;;;33.80;55.00;;;;;;5046285;28;20476;-52
2022/07/24 11:36:23;;;;;;;5.73;5.07;;;33.80;53.40;;;;;;5046238;28;20923;-51
2022/07/24 11:39:49;;;;;;;5.77;5.27;;;33.50;52.10;;;;;;5047949;28;20472;-51
2022/07/24 11:43:13;;;;;;;5.27;4.87;;;33.40;51.70;;;;;;5046085;28;20547;-52
2022/07/24 11:46:38;;;;;;;7.80;5.80;;;33.80;53.20;;;;;;5046612;28;20456;-52
2022/07/24 11:50:04;;;;;;;6.10;5.60;;;33.80;52.70;;;;;;5046049;28;21206;-52
2022/07/24 11:53:28;;;;;;;7.10;6.40;;;33.60;51.50;;;;;;5029763;28;20540;-50
2022/07/24 11:56:52;;;;;;;5.37;4.97;;;33.40;51.90;;;;;;5030354;28;20471;-51
2022/07/24 12:00:45;;;;;;;11.43;6.10;;;33.20;52.30;;;;;;5027116;28;20956;-51
2022/07/24 12:10:10;;;;;;;6.90;5.10;;;33.60;52.90;;;;;;5025238;28;20536;-53
2022/07/24 12:12:39;;;;;;;7.00;5.30;;;33.40;51.10;;;;;;5015945;28;20485;-52
2022/07/24 12:15:09;;;;;;;7.03;6.43;;;33.40;51.90;;;;;;5056620;28;20478;-52
2022/07/24 12:17:54;;;;;;;6.60;6.00;;;33.50;52.40;;;;;;5026086;28;20489;-52
2022/07/24 12:20:21;;;;;;;6.37;4.73;;;33.70;53.30;;;;;;5063842;28;20453;-53
2022/07/24 12:22:48;;;;;;;5.87;5.40;;;34.20;52.60;;;;;;5046165;28;20482;-53
2022/07/24 12:25:17;;;;;;;5.60;5.10;;;34.50;52.90;;;;;;5010328;28;20486;-52
2022/07/24 12:27:47;;;;;;;5.70;5.30;;;34.10;49.70;;;;;;5045152;28;20846;-52
2022/07/24 12:30:22;;;;;;;6.67;4.93;;;33.90;50.00;;;;;;5035078;28;20489;-53
2022/07/24 12:33:01;;;;;;;6.70;5.67;;;34.10;52.00;;;;;;5062436;28;20607;-53
2022/07/24 12:35:29;;;;;;;5.70;5.20;;;34.20;52.60;;;;;;5041049;28;20488;-54
2022/07/24 12:37:57;;;;;;;5.30;4.90;;;34.40;52.10;;;;;;5049110;28;21121;-52
2022/07/24 12:40:32;;;;;;;5.50;5.10;;;34.50;52.40;;;;;;5042969;28;20475;-52
2022/07/24 12:43:04;;;;;;;7.13;6.00;;;34.70;51.50;;;;;;5045162;28;20957;-52
2022/07/24 12:45:31;;;;;;;5.77;5.07;;;34.70;52.30;;;;;;5045697;28;20926;-52
2022/07/24 12:48:22;;;;;;;6.20;5.70;;;35.00;50.60;;;;;;5043597;28;20745;-53
2022/07/24 12:51:00;;;;;;;5.40;4.40;;;35.20;52.50;;;;;;5030401;28;20463;-52
2022/07/24 12:53:28;;;;;;;6.37;5.47;;;35.40;50.70;;;;;;5031894;28;21023;-53
2022/07/24 12:56:08;;;;;;;4.77;4.27;;;35.60;49.50;;;;;;5047942;28;20471;-52
2022/07/24 12:58:52;;;;;;;5.07;4.23;;;35.70;50.30;;;;;;5054437;28;21078;-53
2022/07/24 13:01:20;;;;;;;6.13;5.63;;;35.70;50.80;;;;;;5043317;28;21028;-53
2022/07/24 13:03:52;;;;;;;5.37;4.87;;;36.00;49.40;;;;;;5042368;28;20457;-53
2022/07/24 13:06:19;;;;;;;6.77;5.00;;;36.00;49.40;;;;;;5044601;28;20582;-52
2022/07/24 13:08:45;;;;;;;5.67;5.20;;;36.20;49.40;;;;;;5046741;28;20499;-53
2022/07/24 13:11:13;;;;;;;6.00;4.90;;;36.20;49.80;;;;;;5061924;28;20930;-53
2022/07/24 13:13:40;;;;;;;6.13;5.57;;;36.30;49.60;;;;;;5043837;28;20483;-53
2022/07/24 13:16:07;;;;;;;5.37;4.90;;;36.40;49.30;;;;;;5043402;28;20449;-52
2022/07/24 13:18:34;;;;;;;5.50;4.50;;;36.40;49.20;;;;;;5046407;28;20449;-52
2022/07/24 13:21:00;;;;;;;5.70;5.20;;;36.30;50.00;;;;;;5046871;28;20509;-52
2022/07/24 13:23:27;;;;;;;6.57;5.17;;;36.50;48.60;;;;;;5042632;28;21024;-53
2022/07/24 13:25:54;;;;;;;5.70;5.17;;;36.30;48.20;;;;;;5047339;28;20483;-51
2022/07/24 13:28:22;;;;;;;5.37;4.83;;;36.20;49.30;;;;;;5047340;28;20494;-52
2022/07/24 13:30:50;;;;;;;5.17;4.77;;;36.00;48.60;;;;;;5042089;28;20465;-52
2022/07/24 13:33:20;;;;;;;6.17;5.50;;;35.90;49.10;;;;;;5045437;28;20978;-52
2022/07/24 13:35:50;;;;;;;5.03;4.63;;;35.70;48.90;;;;;;5031360;28;20491;-53
2022/07/24 13:38:17;;;;;;;6.73;5.57;;;35.40;47.70;;;;;;5070333;28;20531;-53
2022/07/24 13:40:43;;;;;;;5.47;5.07;;;35.20;49.20;;;;;;5047035;28;20479;-51
2022/07/24 13:43:10;;;;;;;6.20;5.60;;;34.90;48.60;;;;;;5044950;28;20445;-53
2022/07/24 13:45:38;;;;;;;4.97;4.57;;;34.70;48.70;;;;;;5048409;28;20479;-53
2022/07/24 13:48:08;;;;;;;5.67;5.17;;;34.70;51.00;;;;;;5045874;28;20489;-53
2022/07/24 13:50:37;;;;;;;5.90;5.33;;;34.60;48.50;;;;;;5044473;28;20572;-54
2022/07/24 13:53:05;;;;;;;5.17;4.73;;;34.80;50.60;;;;;;5054840;28;20470;-53
2022/07/24 13:55:32;;;;;;;6.90;4.93;;;34.70;49.30;;;;;;5044026;28;20479;-51
2022/07/24 13:57:59;;;;;;;5.03;4.63;;;34.60;49.50;;;;;;5049856;28;20447;-52
2022/07/24 14:00:25;;;;;;;5.70;5.20;;;34.40;49.30;;;;;;5065075;28;20468;-52
2022/07/24 14:02:55;;;;;;;6.13;4.70;;;34.10;49.70;;;;;;5056100;28;20470;-53
2022/07/24 14:05:21;;;;;;;4.90;4.40;;;34.10;49.60;;;;;;5038915;28;21319;-52
2022/07/24 14:07:48;;;;;;;7.40;4.60;;;34.10;50.00;;;;;;5081286;28;20537;-52
2022/07/24 14:10:15;;;;;;;7.43;5.20;;;34.20;49.00;;;;;;5046407;28;20483;-51
2022/07/24 14:12:41;;;;;;;10.03;5.50;;;34.10;49.00;;;;;;5048523;28;20471;-52
2022/07/24 14:15:09;;;;;;;5.77;5.17;;;34.00;50.10;;;;;;5047504;28;20474;-51
2022/07/24 14:17:36;;;;;;;4.93;4.53;;;34.20;49.90;;;;;;5047992;28;21335;-50
2022/07/24 14:20:07;;;;;;;6.30;5.77;;;33.90;49.00;;;;;;5045698;28;20483;-51
2022/07/24 14:22:34;;;;;;;8.33;5.03;;;33.90;49.50;;;;;;5044506;28;20931;-52